Time;durP1;ratioP1;P1;durP2;ratioP2;P2;SDS_P1;SDS_P2;PMS_P1;PMS_P2;Temp;Humidity;BMP_temperature;BMP_pressure;BME280_temperature;BME280_humidity;BME280_pressure;Samples;Min_cycle;Max_cycle;Signal;HPM_P1;HPM_P2
2021/10/02 00:35:31;;;;;;;7.40;5.80;;;16.50;92.20;;;;;;5111284;27;20047;-64
2021/10/02 00:41:05;;;;;;;;;;;16.50;91.80;;;;;;5112718;27;20031;-64
2021/10/02 00:46:39;;;;;;;9.98;7.32;;;15.80;92.50;;;;;;5078896;28;20052;-64
2021/10/02 00:49:04;;;;;;;7.47;6.18;;;15.60;93.00;;;;;;5061867;28;20278;-63
2021/10/02 00:51:30;;;;;;;8.63;7.50;;;15.40;93.20;;;;;;5081257;27;20493;-63
2021/10/02 00:53:56;;;;;;;6.63;5.70;;;15.30;93.40;;;;;;5109640;27;20035;-63
2021/10/02 00:56:22;;;;;;;15.23;7.70;;;15.40;93.50;;;;;;5105675;27;20829;-63
2021/10/02 00:58:50;;;;;;;13.05;7.82;;;15.50;93.40;;;;;;5109026;27;20115;-64
2021/10/02 01:01:24;;;;;;;9.88;6.88;;;15.30;93.30;;;;;;5108909;27;20043;-63
2021/10/02 01:04:14;;;;;;;10.88;7.53;;;15.10;93.60;;;;;;5107788;27;20092;-63
2021/10/02 01:07:26;;;;;;;9.00;7.60;;;15.00;93.80;;;;;;5085404;28;20638;-64
2021/10/02 01:10:21;;;;;;;11.82;8.45;;;14.80;94.00;;;;;;5108026;27;20062;-64
2021/10/02 01:13:00;;;;;;;8.95;6.95;;;14.70;94.30;;;;;;5101022;27;20155;-64
2021/10/02 01:15:34;;;;;;;12.00;7.60;;;14.80;94.70;;;;;;5106216;27;20043;-64
2021/10/02 01:18:10;;;;;;;9.25;5.53;;;14.80;94.60;;;;;;5105842;27;20039;-64
2021/10/02 01:21:00;;;;;;;10.07;5.75;;;14.80;94.60;;;;;;5104935;27;20039;-64
2021/10/02 01:24:03;;;;;;;10.75;7.40;;;14.90;94.70;;;;;;5107210;27;20092;-64
2021/10/02 01:26:44;;;;;;;7.85;5.50;;;14.90;94.50;;;;;;5103825;27;20032;-63
2021/10/02 01:29:12;;;;;;;7.55;6.38;;;14.90;94.60;;;;;;5104898;27;20047;-63
2021/10/02 01:31:46;;;;;;;8.52;5.57;;;14.90;94.50;;;;;;5107846;27;20039;-63
2021/10/02 01:34:59;;;;;;;6.13;4.28;;;14.90;94.50;;;;;;5107009;27;20034;-63
2021/10/02 01:48:08;;;;;;;9.85;7.97;;;14.90;94.50;;;;;;5107984;27;20072;-63
2021/10/02 01:50:38;;;;;;;10.98;9.27;;;14.90;94.50;;;;;;5107144;27;20055;-63
2021/10/02 01:53:06;;;;;;;13.18;7.80;;;14.90;94.50;;;;;;5106861;27;20093;-63
2021/10/02 01:55:33;;;;;;;11.95;9.52;;;15.00;94.50;;;;;;5106343;27;21017;-63
2021/10/02 01:58:06;;;;;;;12.35;8.82;;;14.90;94.40;;;;;;5106995;27;20372;-63
2021/10/02 02:00:36;;;;;;;10.55;9.45;;;14.80;94.60;;;;;;5105204;27;20047;-63
2021/10/02 02:03:03;;;;;;;11.15;9.63;;;14.70;94.70;;;;;;5104005;27;20471;-63
2021/10/02 02:05:32;;;;;;;10.93;9.20;;;14.50;94.80;;;;;;5103050;27;20511;-63
2021/10/02 02:08:01;;;;;;;11.32;10.13;;;14.50;95.00;;;;;;5101899;28;20135;-62
2021/10/02 02:10:27;;;;;;;9.90;7.85;;;14.50;95.10;;;;;;5108697;27;20036;-63
2021/10/02 02:12:57;;;;;;;9.98;8.93;;;14.40;95.30;;;;;;5107574;27;20399;-63
2021/10/02 02:15:25;;;;;;;13.15;9.93;;;14.30;95.50;;;;;;5105712;27;20040;-66
2021/10/02 02:17:55;;;;;;;13.60;10.82;;;14.20;95.60;;;;;;5110187;27;20418;-66
2021/10/02 02:20:31;;;;;;;13.18;10.75;;;14.20;95.60;;;;;;5103109;27;20130;-66
2021/10/02 02:22:56;;;;;;;13.90;11.05;;;14.10;95.80;;;;;;5105558;27;20378;-66
2021/10/02 02:25:22;;;;;;;12.88;10.15;;;14.10;95.90;;;;;;5108284;27;20120;-66
2021/10/02 02:27:48;;;;;;;12.73;10.70;;;14.00;96.00;;;;;;5105873;27;20097;-66
2021/10/02 02:30:14;;;;;;;12.32;10.63;;;14.00;96.10;;;;;;5106332;27;20050;-68
2021/10/02 02:32:41;;;;;;;8.07;7.05;;;14.00;96.20;;;;;;5108221;27;20470;-68
2021/10/02 02:35:08;;;;;;;15.32;10.65;;;14.00;96.40;;;;;;5094159;27;20039;-68
2021/10/02 02:37:34;;;;;;;11.63;9.75;;;14.10;96.20;;;;;;5104924;27;20489;-67
2021/10/02 02:40:01;;;;;;;11.65;9.90;;;14.00;96.10;;;;;;5104108;27;20046;-67
2021/10/02 02:42:26;;;;;;;13.65;10.60;;;14.00;96.20;;;;;;5108452;28;20058;-67
2021/10/02 02:44:53;;;;;;;11.65;10.45;;;14.10;96.20;;;;;;5107790;27;20761;-67
2021/10/02 02:47:24;;;;;;;11.73;9.73;;;14.10;96.20;;;;;;5080315;28;20158;-68
2021/10/02 02:50:02;;;;;;;14.25;10.07;;;14.10;96.20;;;;;;5103162;28;20062;-68
2021/10/02 02:52:46;;;;;;;10.73;8.85;;;14.20;96.10;;;;;;5122881;27;20039;-68
2021/10/02 02:55:19;;;;;;;13.77;9.70;;;14.20;95.90;;;;;;5110908;28;20036;-67
2021/10/02 02:57:48;;;;;;;11.23;9.27;;;14.20;96.00;;;;;;5107410;27;20043;-66
2021/10/02 03:00:22;;;;;;;10.43;7.72;;;14.30;95.90;;;;;;5108049;27;20038;-66
2021/10/02 03:02:52;;;;;;;13.00;10.05;;;14.30;95.80;;;;;;5083130;27;20052;-67
2021/10/02 03:05:21;;;;;;;12.48;9.32;;;14.40;95.70;;;;;;5100535;27;20518;-66
2021/10/02 03:08:01;;;;;;;10.05;8.73;;;14.40;95.60;;;;;;5096721;27;20043;-67
2021/10/02 03:10:28;;;;;;;12.43;8.70;;;14.40;95.50;;;;;;5111181;27;20126;-66
2021/10/02 03:12:59;;;;;;;9.55;8.27;;;14.40;95.50;;;;;;5109453;27;20055;-66
2021/10/02 03:15:26;;;;;;;11.88;9.00;;;14.40;95.40;;;;;;5113126;27;20048;-66
2021/10/02 03:17:52;;;;;;;14.55;10.23;;;14.40;95.40;;;;;;5106728;27;20046;-66
2021/10/02 03:20:21;;;;;;;10.32;8.38;;;14.40;95.30;;;;;;5105345;27;20038;-66
2021/10/02 03:22:50;;;;;;;10.35;8.02;;;14.40;95.30;;;;;;5106268;27;20062;-66
2021/10/02 03:25:17;;;;;;;9.43;8.52;;;14.40;95.30;;;;;;5110453;27;20050;-66
2021/10/02 03:27:45;;;;;;;10.48;8.50;;;14.40;95.30;;;;;;5108772;27;20545;-66
2021/10/02 03:30:11;;;;;;;11.07;9.98;;;14.30;95.30;;;;;;5106635;27;20173;-67
2021/10/02 03:32:36;;;;;;;11.65;10.00;;;14.30;95.30;;;;;;5110034;27;20138;-66
2021/10/02 03:35:03;;;;;;;13.00;9.27;;;14.30;95.30;;;;;;5085176;27;20031;-66
2021/10/02 03:37:29;;;;;;;12.63;10.65;;;14.20;95.30;;;;;;5106003;27;20040;-67
2021/10/02 03:39:56;;;;;;;12.48;10.70;;;14.20;95.40;;;;;;5085350;28;20063;-66
2021/10/02 03:42:23;;;;;;;10.73;8.95;;;14.10;95.50;;;;;;5105321;27;20035;-66
2021/10/02 03:44:51;;;;;;;9.23;8.07;;;14.10;95.60;;;;;;5103838;27;20062;-66
2021/10/02 03:47:19;;;;;;;15.88;10.77;;;14.20;95.70;;;;;;5105679;27;20039;-65
2021/10/02 03:49:46;;;;;;;12.40;9.07;;;14.20;95.60;;;;;;5110824;27;20047;-66
2021/10/02 03:52:13;;;;;;;11.48;10.15;;;14.20;95.60;;;;;;5111804;27;20051;-65
2021/10/02 03:54:40;;;;;;;13.73;11.20;;;14.20;95.60;;;;;;5106200;27;20038;-66
2021/10/02 03:57:06;;;;;;;14.98;12.15;;;14.20;95.60;;;;;;5109338;27;20762;-66
2021/10/02 03:59:32;;;;;;;15.57;12.23;;;14.20;95.80;;;;;;5104997;27;20040;-66
2021/10/02 04:01:58;;;;;;;16.20;12.82;;;14.10;95.60;;;;;;5111099;27;20530;-66
2021/10/02 04:04:24;;;;;;;15.40;13.25;;;13.90;95.60;;;;;;5086780;27;20108;-66
2021/10/02 04:06:50;;;;;;;15.05;13.00;;;13.80;95.80;;;;;;5105519;27;20027;-66
2021/10/02 04:09:17;;;;;;;14.98;13.02;;;13.70;95.90;;;;;;5108238;27;20036;-67
2021/10/02 04:11:44;;;;;;;17.70;14.38;;;13.60;96.10;;;;;;5110375;27;20126;-67
2021/10/02 04:14:10;;;;;;;20.98;15.38;;;13.60;96.30;;;;;;5086492;28;20693;-66
2021/10/02 04:16:36;;;;;;;18.83;15.15;;;13.50;96.40;;;;;;5104800;27;20116;-66
2021/10/02 04:19:03;;;;;;;18.88;14.20;;;13.50;96.50;;;;;;5084012;27;20495;-66
2021/10/02 04:21:29;;;;;;;18.88;13.98;;;13.40;96.50;;;;;;5106964;27;20044;-67
2021/10/02 04:23:55;;;;;;;19.95;15.63;;;13.40;96.60;;;;;;5109615;27;20096;-67
2021/10/02 04:26:22;;;;;;;17.70;14.45;;;13.40;96.70;;;;;;5091620;27;20061;-67
2021/10/02 04:28:49;;;;;;;15.07;13.38;;;13.40;96.80;;;;;;5112691;27;20039;-67
2021/10/02 04:31:16;;;;;;;17.50;14.93;;;13.40;96.80;;;;;;5102889;27;20052;-67
2021/10/02 04:33:42;;;;;;;17.17;15.05;;;13.40;96.80;;;;;;5110258;27;20047;-66
2021/10/02 04:36:08;;;;;;;20.42;14.20;;;13.40;97.00;;;;;;5105138;27;20043;-67
2021/10/02 04:38:34;;;;;;;18.33;14.75;;;13.30;96.80;;;;;;5107070;27;20035;-67
2021/10/02 04:41:02;;;;;;;16.10;14.40;;;13.20;96.90;;;;;;5108463;27;20446;-66
2021/10/02 04:43:28;;;;;;;18.83;14.35;;;13.10;97.10;;;;;;5080945;27;20048;-67
2021/10/02 04:45:54;;;;;;;20.45;14.90;;;13.10;97.20;;;;;;5111044;27;20062;-65
2021/10/02 04:48:21;;;;;;;17.58;15.18;;;13.20;97.20;;;;;;5112641;27;20039;-67
2021/10/02 04:50:47;;;;;;;18.60;13.93;;;13.20;97.20;;;;;;5109445;27;20066;-66
2021/10/02 04:53:13;;;;;;;22.70;15.05;;;13.20;97.20;;;;;;5107091;27;20047;-66
2021/10/02 04:55:42;;;;;;;20.48;14.85;;;13.20;97.20;;;;;;5090445;27;20032;-66
2021/10/02 04:58:07;;;;;;;16.63;14.77;;;13.20;97.30;;;;;;5108543;27;20039;-66
2021/10/02 05:00:33;;;;;;;17.98;14.73;;;13.20;97.30;;;;;;5108241;27;20036;-66
2021/10/02 05:03:01;;;;;;;23.35;15.75;;;13.20;97.40;;;;;;5093570;27;20043;-66
2021/10/02 05:05:27;;;;;;;18.05;15.82;;;13.30;97.40;;;;;;5098461;27;20033;-66
2021/10/02 05:07:53;;;;;;;26.23;17.70;;;13.20;97.40;;;;;;5080073;27;20044;-67
2021/10/02 05:10:19;;;;;;;18.60;15.75;;;13.20;97.40;;;;;;5104444;27;20043;-67
2021/10/02 05:12:44;;;;;;;20.17;15.63;;;13.20;97.40;;;;;;5106928;27;20057;-67
2021/10/02 05:15:10;;;;;;;19.33;15.93;;;13.10;97.50;;;;;;5105615;27;20046;-68
2021/10/02 05:17:36;;;;;;;21.83;16.13;;;13.10;97.50;;;;;;5106837;27;20135;-67
2021/10/02 05:20:03;;;;;;;20.55;15.18;;;13.10;97.70;;;;;;5106934;27;20817;-67
2021/10/02 05:22:29;;;;;;;19.88;15.50;;;13.10;97.60;;;;;;5109271;27;20369;-67
2021/10/02 05:24:55;;;;;;;20.10;15.63;;;13.10;97.60;;;;;;5110501;27;20047;-67
2021/10/02 05:27:20;;;;;;;23.55;15.93;;;13.10;97.60;;;;;;5106832;27;20418;-65
2021/10/02 05:29:48;;;;;;;18.15;15.77;;;13.10;97.70;;;;;;5104285;27;20046;-67
2021/10/02 05:32:15;;;;;;;18.73;14.88;;;13.00;97.70;;;;;;5108302;27;20079;-66
2021/10/02 05:34:41;;;;;;;27.13;16.90;;;13.00;97.70;;;;;;5108642;27;20023;-66
2021/10/02 05:37:07;;;;;;;21.58;16.23;;;13.10;97.80;;;;;;5107628;27;22180;-66
2021/10/02 05:39:33;;;;;;;18.17;15.73;;;13.00;97.80;;;;;;5104438;27;20096;-66
2021/10/02 05:41:59;;;;;;;20.48;15.75;;;13.00;97.80;;;;;;5110134;27;20051;-67
2021/10/02 05:44:25;;;;;;;21.63;17.73;;;13.00;97.80;;;;;;5082051;28;20412;-76
2021/10/02 05:46:51;;;;;;;22.15;17.58;;;13.00;97.80;;;;;;5104953;27;20035;-77
2021/10/02 05:49:16;;;;;;;23.13;18.20;;;12.90;97.80;;;;;;5097227;27;20498;-77
2021/10/02 05:51:42;;;;;;;28.15;18.25;;;13.00;97.90;;;;;;5081313;27;20051;-66
2021/10/02 05:54:09;;;;;;;31.38;17.60;;;13.00;98.00;;;;;;5091265;27;20127;-66
2021/10/02 05:56:36;;;;;;;22.20;18.60;;;13.00;98.00;;;;;;5090770;27;20059;-66
2021/10/02 05:59:03;;;;;;;21.75;16.88;;;13.00;98.10;;;;;;5081876;27;20035;-68
2021/10/02 06:01:30;;;;;;;25.05;17.23;;;13.10;98.20;;;;;;5087129;27;20088;-67
2021/10/02 06:03:56;;;;;;;21.98;16.80;;;13.10;98.20;;;;;;5077865;27;20108;-66
2021/10/02 06:06:22;;;;;;;20.10;17.25;;;13.10;98.10;;;;;;5065119;27;20036;-67
2021/10/02 06:08:48;;;;;;;23.30;17.70;;;13.10;98.10;;;;;;5106747;27;20046;-66
2021/10/02 06:11:15;;;;;;;26.33;17.20;;;13.10;98.10;;;;;;5080297;27;20043;-66
2021/10/02 06:13:40;;;;;;;23.60;18.08;;;13.10;98.20;;;;;;5081108;28;20054;-67
2021/10/02 06:16:06;;;;;;;20.92;17.02;;;13.10;98.20;;;;;;5106868;27;20027;-66
2021/10/02 06:18:32;;;;;;;22.23;17.98;;;13.20;98.20;;;;;;5106399;27;20078;-66
2021/10/02 06:20:58;;;;;;;24.35;16.58;;;13.10;98.20;;;;;;5080007;28;20974;-66
2021/10/02 06:23:28;;;;;;;21.25;16.58;;;13.20;98.30;;;;;;5106533;27;20040;-66
2021/10/02 06:25:55;;;;;;;23.17;17.33;;;13.20;98.30;;;;;;5116810;27;20045;-67
2021/10/02 06:28:21;;;;;;;18.55;16.38;;;13.30;98.40;;;;;;5081117;28;20044;-63
2021/10/02 06:30:47;;;;;;;20.95;16.10;;;13.30;98.50;;;;;;5101580;27;20043;-71
2021/10/02 06:33:26;;;;;;;22.13;16.40;;;13.30;98.30;;;;;;5103843;27;20053;-72
2021/10/02 06:35:51;;;;;;;19.80;15.27;;;13.30;98.30;;;;;;5107123;27;20134;-73
2021/10/02 06:38:17;;;;;;;20.13;15.90;;;13.30;98.40;;;;;;5095570;27;20288;-73
2021/10/02 06:40:46;;;;;;;16.95;14.25;;;13.50;98.50;;;;;;5108244;27;20396;-73
2021/10/02 06:43:12;;;;;;;13.77;12.23;;;13.70;98.60;;;;;;5119725;27;20083;-72
2021/10/02 06:45:38;;;;;;;17.48;15.45;;;13.70;98.40;;;;;;5103535;27;20115;-72
2021/10/02 06:48:04;;;;;;;19.17;15.10;;;13.80;98.30;;;;;;5090924;28;20051;-72
2021/10/02 06:50:31;;;;;;;17.80;14.40;;;13.70;98.00;;;;;;5104879;28;20051;-72
2021/10/02 06:52:57;;;;;;;18.20;15.43;;;13.70;98.00;;;;;;5101718;27;20322;-72
2021/10/02 06:55:23;;;;;;;18.80;15.98;;;13.60;98.10;;;;;;5104973;27;20038;-72
2021/10/02 06:57:49;;;;;;;18.83;16.80;;;13.60;98.10;;;;;;5105847;27;20148;-71
2021/10/02 07:00:15;;;;;;;18.20;15.88;;;13.60;98.00;;;;;;5090898;28;20079;-72
2021/10/02 07:02:41;;;;;;;19.83;16.42;;;13.50;98.00;;;;;;5101671;28;20039;-72
2021/10/02 07:05:11;;;;;;;20.38;17.33;;;13.40;98.30;;;;;;5103111;28;20034;-72
2021/10/02 07:07:40;;;;;;;20.52;17.02;;;13.40;98.10;;;;;;5102370;27;20493;-72
2021/10/02 07:10:07;;;;;;;22.13;17.60;;;13.40;98.20;;;;;;5107963;27;20047;-72
2021/10/02 07:12:34;;;;;;;18.88;16.88;;;13.30;98.30;;;;;;5100745;27;20070;-72
2021/10/02 07:15:01;;;;;;;16.20;14.45;;;13.40;98.40;;;;;;5105917;27;20100;-72
2021/10/02 07:17:26;;;;;;;16.98;14.65;;;13.50;98.50;;;;;;5109759;27;20057;-72
2021/10/02 07:19:52;;;;;;;16.15;14.38;;;13.50;98.40;;;;;;5103544;27;20044;-71
2021/10/02 07:22:18;;;;;;;16.55;11.88;;;13.60;98.30;;;;;;5103164;27;20038;-71
2021/10/02 07:24:43;;;;;;;14.73;10.18;;;13.60;98.00;;;;;;5103427;28;20122;-71
2021/10/02 07:27:09;;;;;;;10.23;8.43;;;13.60;97.90;;;;;;5107766;28;20097;-71
2021/10/02 07:29:35;;;;;;;12.98;8.35;;;13.60;97.60;;;;;;5106139;28;22010;-72
2021/10/02 07:32:01;;;;;;;12.80;7.97;;;13.50;97.30;;;;;;5100523;27;20495;-71
2021/10/02 07:34:28;;;;;;;5.18;3.10;;;13.50;97.30;;;;;;5062963;28;20046;-70
2021/10/02 07:36:53;;;;;;;11.65;7.00;;;13.80;97.80;;;;;;5108435;27;20069;-71
2021/10/02 07:39:19;;;;;;;7.10;4.60;;;14.20;97.90;;;;;;5102824;27;20400;-71
2021/10/02 07:41:47;;;;;;;6.10;3.53;;;14.50;97.20;;;;;;5107529;27;20035;-71
2021/10/02 07:44:13;;;;;;;7.03;3.83;;;14.60;97.10;;;;;;5108413;27;20479;-72
2021/10/02 07:46:52;;;;;;;5.15;3.60;;;14.80;97.00;;;;;;5109370;27;20118;-72
2021/10/02 07:49:19;;;;;;;4.65;3.50;;;14.90;96.80;;;;;;5099100;27;20047;-72
2021/10/02 07:51:46;;;;;;;10.52;7.68;;;15.00;96.80;;;;;;5103890;27;20086;-72
2021/10/02 07:54:12;;;;;;;9.35;7.63;;;15.30;96.50;;;;;;5107361;27;20040;-72
2021/10/02 07:56:38;;;;;;;10.70;9.10;;;15.30;95.60;;;;;;5110961;27;20031;-72
2021/10/02 07:59:07;;;;;;;10.57;7.43;;;15.10;95.10;;;;;;5105613;27;20040;-72
2021/10/02 08:01:34;;;;;;;9.68;6.75;;;14.90;95.10;;;;;;5093862;27;20040;-73
2021/10/02 08:04:04;;;;;;;10.05;5.72;;;14.70;94.80;;;;;;5108444;27;20039;-73
2021/10/02 08:06:31;;;;;;;6.55;5.20;;;14.70;94.50;;;;;;5082506;28;20040;-74
2021/10/02 08:08:58;;;;;;;6.28;3.22;;;14.70;94.30;;;;;;5110169;27;20067;-74
2021/10/02 08:11:24;;;;;;;7.30;4.35;;;14.70;94.30;;;;;;5107964;27;20032;-74
2021/10/02 08:13:50;;;;;;;8.65;5.28;;;14.70;94.40;;;;;;5108423;27;20888;-74
2021/10/02 08:16:17;;;;;;;5.68;4.50;;;14.80;94.20;;;;;;5095098;27;20037;-74
2021/10/02 08:18:46;;;;;;;7.25;3.20;;;14.90;94.00;;;;;;5105692;27;20035;-73
2021/10/02 08:21:13;;;;;;;8.95;6.90;;;14.90;94.20;;;;;;5097606;27;20587;-74
2021/10/02 08:23:41;;;;;;;10.90;7.50;;;14.90;94.20;;;;;;5105194;27;20047;-74
2021/10/02 08:26:07;;;;;;;9.20;7.00;;;14.80;94.10;;;;;;5108228;27;20046;-74
2021/10/02 08:28:34;;;;;;;12.75;8.02;;;14.80;94.20;;;;;;5105889;27;20051;-73
2021/10/02 08:31:01;;;;;;;13.18;9.60;;;14.80;94.20;;;;;;5108900;27;20509;-72
2021/10/02 08:33:27;;;;;;;15.27;12.02;;;14.80;94.30;;;;;;5108904;27;20575;-73
2021/10/02 08:35:53;;;;;;;12.75;9.57;;;14.90;94.50;;;;;;5108511;27;20162;-73
2021/10/02 08:38:19;;;;;;;9.27;7.60;;;15.00;94.60;;;;;;5105372;27;20471;-73
2021/10/02 08:40:45;;;;;;;17.27;13.57;;;15.20;94.60;;;;;;5110614;27;20039;-73
2021/10/02 08:43:14;;;;;;;18.20;13.07;;;15.20;94.60;;;;;;5105311;27;20046;-73
2021/10/02 08:45:40;;;;;;;16.60;13.13;;;15.00;94.50;;;;;;5109326;27;20035;-73
2021/10/02 08:48:12;;;;;;;17.63;14.82;;;14.90;94.60;;;;;;5096894;27;20039;-73
2021/10/02 08:50:40;;;;;;;18.48;14.65;;;14.90;94.90;;;;;;5109427;27;20051;-73
2021/10/02 08:53:07;;;;;;;9.30;7.18;;;14.80;95.10;;;;;;5110761;27;20046;-73
2021/10/02 08:55:34;;;;;;;17.88;14.35;;;15.00;95.30;;;;;;5098611;27;20071;-73
2021/10/02 08:58:00;;;;;;;11.93;7.95;;;15.20;95.20;;;;;;5107630;27;22004;-73
2021/10/02 09:00:26;;;;;;;19.10;16.23;;;15.40;94.90;;;;;;5104777;27;20096;-72
2021/10/02 09:02:53;;;;;;;17.75;15.85;;;15.60;94.60;;;;;;5107075;27;20886;-72
2021/10/02 09:05:21;;;;;;;8.30;5.18;;;15.60;94.30;;;;;;5110385;27;20166;-72
2021/10/02 09:07:56;;;;;;;21.00;16.90;;;15.70;94.30;;;;;;5104871;27;20039;-72
2021/10/02 09:10:24;;;;;;;17.05;12.52;;;16.00;94.10;;;;;;5108961;27;20040;-73
2021/10/02 09:12:50;;;;;;;18.73;16.30;;;15.90;93.80;;;;;;5110245;27;20137;-72
2021/10/02 09:15:17;;;;;;;17.98;16.00;;;15.80;93.70;;;;;;5108903;27;20411;-73
2021/10/02 09:17:44;;;;;;;21.75;16.50;;;15.70;93.60;;;;;;5105987;27;20432;-73
2021/10/02 09:20:11;;;;;;;21.40;17.58;;;15.60;93.80;;;;;;5106059;27;20077;-73
2021/10/02 09:22:38;;;;;;;14.50;12.20;;;15.70;93.90;;;;;;5109915;27;20184;-73
2021/10/02 09:25:09;;;;;;;12.50;10.05;;;15.90;93.90;;;;;;5109763;27;20035;-71
2021/10/02 09:27:36;;;;;;;20.65;15.82;;;16.20;93.70;;;;;;5096628;27;20044;-72
2021/10/02 09:30:11;;;;;;;20.25;17.25;;;16.40;93.40;;;;;;5110119;27;20032;-72
2021/10/02 09:32:46;;;;;;;29.60;19.45;;;16.40;92.90;;;;;;5110265;27;20508;-72
2021/10/02 09:35:13;;;;;;;17.60;14.80;;;16.50;92.70;;;;;;5096446;28;20576;-71
2021/10/02 09:37:42;;;;;;;15.05;11.02;;;16.50;92.60;;;;;;5096853;27;20035;-72
2021/10/02 09:40:17;;;;;;;16.65;13.85;;;16.60;92.30;;;;;;5106710;27;20035;-71
2021/10/02 09:42:52;;;;;;;14.10;11.60;;;16.60;91.80;;;;;;5107758;27;20046;-73
2021/10/02 09:45:41;;;;;;;12.98;10.35;;;16.40;91.80;;;;;;5108554;27;20043;-72
2021/10/02 09:48:14;;;;;;;13.63;9.65;;;16.50;92.00;;;;;;5097113;27;20040;-71
2021/10/02 09:50:47;;;;;;;;;;;16.60;91.80;;;;;;5107575;27;20062;-72
2021/10/02 09:53:16;;;;;;;12.65;10.27;;;16.70;91.70;;;;;;5099305;27;20324;-71
2021/10/02 09:55:51;;;;;;;10.25;7.82;;;16.60;91.30;;;;;;5096080;27;20076;-71
2021/10/02 09:58:32;;;;;;;16.25;10.20;;;16.60;91.00;;;;;;5105589;27;20384;-70
2021/10/02 10:01:01;;;;;;;14.13;9.20;;;16.60;90.60;;;;;;5095432;28;20047;-70
2021/10/02 10:03:42;;;;;;;14.93;10.57;;;16.50;90.90;;;;;;5111535;27;20054;-71
2021/10/02 10:06:41;;;;;;;10.93;8.85;;;16.70;91.20;;;;;;5096554;27;20088;-71
2021/10/02 10:09:12;;;;;;;15.57;10.63;;;16.80;90.90;;;;;;5064561;27;20595;-71
2021/10/02 10:11:54;;;;;;;13.85;8.10;;;16.90;90.40;;;;;;5110468;27;20039;-72
2021/10/02 10:14:25;;;;;;;11.68;8.82;;;16.90;90.30;;;;;;5109545;27;20130;-71
2021/10/02 10:16:53;;;;;;;12.35;8.63;;;16.90;90.00;;;;;;5105185;27;20470;-71
2021/10/02 10:19:24;;;;;;;8.80;6.55;;;16.90;90.10;;;;;;5086544;27;20159;-72
2021/10/02 10:22:23;;;;;;;7.65;4.15;;;17.00;90.20;;;;;;5107530;27;20040;-71
2021/10/02 10:24:57;;;;;;;9.65;6.57;;;17.20;90.30;;;;;;5095982;27;20081;-71
2021/10/02 10:27:36;;;;;;;7.60;6.38;;;17.40;89.40;;;;;;5094427;28;20384;-72
2021/10/02 10:30:09;;;;;;;9.05;5.60;;;17.40;89.00;;;;;;5106947;27;20480;-71
2021/10/02 10:32:37;;;;;;;15.02;7.30;;;17.40;88.90;;;;;;5109154;28;20059;-71
2021/10/02 10:35:05;;;;;;;10.25;7.40;;;17.50;87.90;;;;;;5105390;27;20496;-71
2021/10/02 10:37:30;;;;;;;6.60;4.43;;;17.60;87.40;;;;;;5105475;27;20034;-70
2021/10/02 10:39:59;;;;;;;8.60;5.95;;;17.70;87.60;;;;;;5105006;27;20043;-70
2021/10/02 10:42:27;;;;;;;7.57;4.30;;;17.90;87.20;;;;;;5091051;28;20038;-71
2021/10/02 10:44:55;;;;;;;8.13;5.30;;;18.10;86.80;;;;;;5107347;27;20134;-71
2021/10/02 10:47:22;;;;;;;6.72;5.20;;;18.20;86.30;;;;;;5094849;28;20036;-71
2021/10/02 10:49:48;;;;;;;15.10;9.38;;;18.30;85.50;;;;;;5105376;28;20048;-71
2021/10/02 10:52:15;;;;;;;15.65;10.20;;;18.30;83.80;;;;;;5109996;27;20051;-69
2021/10/02 10:54:45;;;;;;;15.10;10.63;;;18.00;83.80;;;;;;5109245;28;20031;-70
2021/10/02 10:57:33;;;;;;;12.52;10.57;;;17.90;84.40;;;;;;5104411;28;20634;-70
2021/10/02 10:59:59;;;;;;;10.70;7.30;;;17.70;84.80;;;;;;5108050;28;20039;-70
2021/10/02 11:02:43;;;;;;;10.10;8.75;;;17.70;85.40;;;;;;5102716;28;20039;-70
2021/10/02 11:05:40;;;;;;;12.73;7.97;;;17.60;85.20;;;;;;5109303;28;20082;-71
2021/10/02 11:08:10;;;;;;;9.98;7.93;;;17.50;85.50;;;;;;5106097;28;21875;-70
2021/10/02 11:10:45;;;;;;;11.68;8.95;;;17.40;86.10;;;;;;5078503;28;20101;-73
2021/10/02 11:13:25;;;;;;;12.45;8.10;;;17.50;85.10;;;;;;5127196;27;20491;-71
2021/10/02 11:15:51;;;;;;;13.77;9.25;;;17.50;85.40;;;;;;5101938;28;20050;-71
2021/10/02 11:18:39;;;;;;;14.82;8.45;;;17.40;84.10;;;;;;5106475;27;20410;-70
2021/10/02 11:21:05;;;;;;;14.05;7.43;;;17.10;83.10;;;;;;5108866;27;20050;-70
2021/10/02 11:23:59;;;;;;;13.20;7.60;;;17.00;83.60;;;;;;5111135;27;20048;-70
2021/10/02 11:26:36;;;;;;;10.65;7.78;;;16.90;82.70;;;;;;5109739;27;20089;-70
2021/10/02 11:29:02;;;;;;;9.85;7.07;;;16.70;82.20;;;;;;5110963;27;20096;-70
2021/10/02 11:31:30;;;;;;;11.52;5.70;;;16.60;82.60;;;;;;5083465;27;22289;-69
2021/10/02 11:33:59;;;;;;;9.13;6.22;;;16.60;83.30;;;;;;5111575;27;20032;-70
2021/10/02 11:36:39;;;;;;;12.15;6.53;;;16.70;83.10;;;;;;5109816;27;20157;-70
2021/10/02 11:39:10;;;;;;;10.77;5.80;;;16.70;82.70;;;;;;5107949;27;20047;-71
2021/10/02 11:41:44;;;;;;;10.55;6.53;;;16.70;81.90;;;;;;5109635;27;20040;-71
2021/10/02 11:44:12;;;;;;;9.25;5.70;;;16.60;81.30;;;;;;5111482;27;20372;-71
2021/10/02 11:46:38;;;;;;;8.75;5.70;;;16.60;81.80;;;;;;5098485;27;20092;-71
2021/10/02 11:49:18;;;;;;;9.90;4.63;;;16.50;80.70;;;;;;5110647;27;20119;-71
2021/10/02 11:52:12;;;;;;;8.48;4.07;;;16.40;78.90;;;;;;5096690;27;20404;-71
2021/10/02 11:54:39;;;;;;;10.57;5.18;;;16.30;79.40;;;;;;5088777;28;20047;-71
2021/10/02 11:57:16;;;;;;;11.80;5.05;;;16.30;79.60;;;;;;5108810;27;20036;-71
2021/10/02 11:59:46;;;;;;;6.50;4.75;;;16.30;80.70;;;;;;5097960;28;20062;-71
2021/10/02 12:02:14;;;;;;;6.82;4.40;;;16.40;80.60;;;;;;5112787;27;20054;-71
2021/10/02 12:04:40;;;;;;;5.78;3.90;;;16.40;79.50;;;;;;5106685;27;20039;-71
2021/10/02 12:07:06;;;;;;;5.88;3.60;;;16.40;79.50;;;;;;5107301;27;20086;-70
2021/10/02 12:09:32;;;;;;;9.80;3.80;;;16.50;80.00;;;;;;5107402;27;20051;-71
2021/10/02 12:11:58;;;;;;;8.63;3.45;;;16.50;79.30;;;;;;5113020;27;20035;-71
2021/10/02 12:14:26;;;;;;;10.90;3.60;;;16.40;79.10;;;;;;5107411;27;20575;-71
2021/10/02 12:16:55;;;;;;;12.15;3.47;;;16.30;79.20;;;;;;5108653;27;20040;-71
2021/10/02 12:19:22;;;;;;;7.80;3.10;;;16.30;78.70;;;;;;5096848;28;20496;-71
2021/10/02 12:21:50;;;;;;;6.43;2.70;;;16.30;78.90;;;;;;5111078;27;20043;-71
2021/10/02 12:24:19;;;;;;;5.65;3.22;;;16.20;78.50;;;;;;5098384;27;20036;-72
2021/10/02 12:27:07;;;;;;;6.07;3.35;;;16.10;79.30;;;;;;5092094;27;20035;-71
2021/10/02 12:29:39;;;;;;;6.28;2.65;;;16.10;79.40;;;;;;5110268;27;20080;-72
2021/10/02 12:32:08;;;;;;;7.35;3.20;;;16.10;79.40;;;;;;5083631;27;20062;-72
2021/10/02 12:34:39;;;;;;;12.27;2.97;;;16.10;80.10;;;;;;5105338;27;20052;-69
2021/10/02 12:37:04;;;;;;;7.20;2.83;;;16.10;80.50;;;;;;5109211;27;20031;-69
2021/10/02 12:39:34;;;;;;;6.65;2.75;;;16.00;80.10;;;;;;5106463;27;20480;-70
2021/10/02 12:42:01;;;;;;;9.52;2.65;;;16.00;80.30;;;;;;5110476;27;20027;-71
2021/10/02 12:44:32;;;;;;;7.93;1.98;;;15.90;80.50;;;;;;5106175;27;20040;-70
2021/10/02 12:47:00;;;;;;;4.43;1.80;;;16.00;79.90;;;;;;5099503;27;20042;-70
2021/10/02 12:49:27;;;;;;;6.10;1.90;;;15.90;79.50;;;;;;5110465;27;20383;-69
2021/10/02 12:51:54;;;;;;;6.53;1.95;;;15.90;79.10;;;;;;5110005;27;20107;-69
2021/10/02 12:54:25;;;;;;;6.95;2.10;;;15.90;79.60;;;;;;5104303;27;20044;-70
2021/10/02 12:57:16;;;;;;;5.80;2.63;;;16.00;80.60;;;;;;5106005;27;20167;-69
2021/10/02 12:59:47;;;;;;;7.30;2.63;;;16.00;81.70;;;;;;5107936;27;20161;-71
2021/10/02 13:02:16;;;;;;;11.40;2.90;;;15.90;81.90;;;;;;5082125;27;20055;-68
2021/10/02 13:04:41;;;;;;;8.90;2.35;;;16.00;82.20;;;;;;5104222;27;20048;-69
2021/10/02 13:07:07;;;;;;;9.85;3.28;;;15.90;82.10;;;;;;5110183;27;20042;-69
2021/10/02 13:10:00;;;;;;;5.93;2.45;;;15.90;81.70;;;;;;5111867;27;20103;-69
2021/10/02 13:12:28;;;;;;;7.03;3.03;;;15.90;82.50;;;;;;5103992;27;20039;-70
2021/10/02 13:14:55;;;;;;;6.28;2.35;;;15.80;83.00;;;;;;5105697;27;20039;-69
2021/10/02 13:17:22;;;;;;;16.63;2.83;;;15.80;83.30;;;;;;5082141;27;20498;-70
2021/10/02 13:19:48;;;;;;;7.95;2.00;;;15.80;83.60;;;;;;5108171;27;20495;-70
2021/10/02 13:22:20;;;;;;;6.40;1.92;;;15.90;84.10;;;;;;5104426;27;20070;-70
2021/10/02 13:25:26;;;;;;;8.98;2.22;;;15.80;84.50;;;;;;5110002;27;20039;-70
2021/10/02 13:27:57;;;;;;;7.57;2.05;;;15.90;84.60;;;;;;5051714;28;20227;-70
2021/10/02 13:30:32;;;;;;;7.68;2.38;;;15.80;84.90;;;;;;5097133;27;20090;-64
2021/10/02 13:33:01;;;;;;;7.75;2.53;;;15.90;84.90;;;;;;5105252;27;20040;-64
2021/10/02 13:35:32;;;;;;;8.60;2.50;;;15.80;84.80;;;;;;5109230;27;20047;-64
2021/10/02 13:37:58;;;;;;;5.55;2.20;;;15.90;85.20;;;;;;5105903;27;20039;-70
2021/10/02 13:40:30;;;;;;;11.10;2.70;;;15.80;85.40;;;;;;5106494;27;20441;-69